Orto / Ocaso: 05:00 / 19:27 UTC (Datos para LEAX 28-05-2020)

[fuente: ADDS]

METAR:


LEMG 282130Z 19003KT 150V230 9999 FEW025 20/15 Q1019 NOSIG =
TAF LEMG 281700Z 2818/2918 16008KT 9999 FEW030 TX27/2913Z TN16/2905Z BECMG 2821/2823 29006KT BECMG 2908/2910 14008KT LEGR 282130Z AUTO VRB01KT CAVOK 21/11 Q1019 =
TAF LEGR 282000Z 2821/2921 VRB02KT CAVOK TX34/2915Z TN13/2905Z BECMG 2913/2915 18010KT LEZL 282130Z AUTO 22007KT CAVOK 23/12 Q1016 =
TAF LEZL 282000Z 2821/2921 22010KT CAVOK TX37/2915Z TN19/2905Z BECMG 2902/2904 05006KT BECMG 2917/2919 22010KT LEAM 282130Z AUTO 04010KT 360V070 CAVOK 25/04 Q1019 =
TAF LEAM 282000Z 2821/2921 05014KT CAVOK TX32/2914Z TN20/2905Z BECMG 2821/2823 35008KT BECMG 2906/2908 06016KT PROB30 TEMPO 2908/2920 07018G30KT LEBA 282130Z AUTO 24005KT CAVOK 24/12 Q1016 =
TAF LEBA 281700Z 2818/2903 22005KT CAVOK LEJR 282130Z AUTO 14005KT 070V190 CAVOK 21/12 Q1016 =
TAF LEJR 281700Z 2818/2918 12010KT CAVOK TX34/2914Z TN17/2905Z BECMG 2900/2902 06006KT BECMG 2907/2909 14010KT GEML 282130Z AUTO 06007KT 010V100 9999 BKN010 BKN015 OVC021 20/18 Q1018 =
TAF GEML 282000Z 2821/2921 06008KT 9999 FEW008 BKN012 TX25/2913Z TN18/2905Z BECMG 2908/2910 SCT014 LXGB 282050Z AUTO 08020KT 9000 // BKN016/// BKN025/// 20/17 Q1018 =
TAF LXGB 281317Z 2815/2823 11018G28KT 9999 FEW015 520002 BECMG 2815/2818 09014KT 50//// PROB40 2815/2823 7000 HZ SCT020

TAFOR:


TAF LEMG 281700Z 2818/2918 16008KT 9999 FEW030 TX27/2913Z TN16/2905Z BECMG 2821/2823 29006KT BECMG 2908/2910 14008KT =
TAF LEGR 282000Z 2821/2921 VRB02KT CAVOK TX34/2915Z TN13/2905Z BECMG 2913/2915 18010KT =
TAF LEZL 282000Z 2821/2921 22010KT CAVOK TX37/2915Z TN19/2905Z BECMG 2902/2904 05006KT BECMG 2917/2919 22010KT =
TAF LEAM 282000Z 2821/2921 05014KT CAVOK TX32/2914Z TN20/2905Z BECMG 2821/2823 35008KT BECMG 2906/2908 06016KT PROB30 TEMPO 2908/2920 07018G30KT =
TAF LEBA 281700Z 2818/2903 22005KT CAVOK =
TAF LEJR 281700Z 2818/2918 12010KT CAVOK TX34/2914Z TN17/2905Z BECMG 2900/2902 06006KT BECMG 2907/2909 14010KT =
TAF GEML 282000Z 2821/2921 06008KT 9999 FEW008 BKN012 TX25/2913Z TN18/2905Z BECMG 2908/2910 SCT014 =
TAF LXGB 281317Z 2815/2823 11018G28KT 9999 FEW015 520002 BECMG 2815/2818 09014KT 50//// PROB40 2815/2823 7000 HZ SCT020 =

Recuerde que, aunque regularmente actualizada, la información meteorológica aquí presentada no debe ser utilizada para la planificación de vuelos. Si lo desea, puede consultar la información meteorológica adecuada, tanto de aeródromos como en ruta, por las vías oficialmente establecidas en la legislación -> AQUí

Utilizamos "cookies" propias y de terceros para analizar nuestros servicios, medir las audiencias, personalizar el contenido que ofrecemos y mostrar información adaptada a sus intereses mediante la obtención de los datos necesarios para perfilar sus hábitos de navegación e inferir grupos de interés, siempre de modo anónimo. Si continúa utilizando el sitio web AEROCLUBMALAGA.COM, significa que acepta sus términos y condiciones y el uso de "cookies" al utilizar el sitio web y nuestros servicios. Asimismo, podemos utilizar fuentes de datos externas para elaborar estos grupos de interés, así compartir los análisis de navegación y los grupos de interés inferidos con terceros con el objetivo de personalizar los contenidos. Para obtener más información sobre las cookies que utilizamos y cómo eliminarlas, consulte nuestra política de privacidad.

Acepto las cookies de esta página web.
EU Cookie Directive plugin by www.channeldigital.co.uk